ADDS METAR Data INFO
IDs: Format: Raw Decoded Include TAF

Data at: 1513 UTC 11 Dec 2017

PAGL 111441Z AUTO 34017G22KT 10SM BKN026 BKN035 OVC120 M05/M07 A2920 RMK AO2 FZRANO
PAGL 111356Z AUTO 34013KT 10SM FEW028 BKN110 M05/M07 A2922 RMK AO2 SLP891 T10501072 FZRANO
PAGL 111056Z AUTO 35012G17KT 10SM BKN034 OVC040 M04/M07 A2928 RMK AO2 SLP911 T10441072 FZRANO
PAGL 110856Z AUTO 35009KT 10SM OVC022 M05/M08 A2933 RMK AO2 SNE0759 SLP930 P0000 60000 T10501078 410441106 58022 FZRANO
PAGL 110729Z AUTO 36010KT 4SM -SN BR BKN028 BKN035 OVC042 M06/M08 A2937 RMK AO2 P0000 FZRANO
PAGL 110716Z AUTO 01010KT 6SM -SN BR BKN031 BKN035 OVC043 M06/M08 A2938 RMK AO2 P0000 FZRANO
PAGL 110656Z AUTO 01011KT 3SM -SN BR OVC027 M06/M08 A2940 RMK AO2 SLP952 P0000 T10561078 FZRANO
PAGL 110652Z AUTO 01009KT 3SM -SN BR OVC027 M06/M08 A2940 RMK AO2 P0000 FZRANO
PAGL 110624Z AUTO 36010KT 2SM -SN BR FEW021 OVC027 M06/M08 A2941 RMK AO2 P0000 FZRANO
PAGL 110556Z AUTO 36009KT 4SM -SN FEW020 BKN029 OVC036 M06/M08 A2943 RMK AO2 SLP962 P0000 60000 T10561083 11056 21072 56022 FZRANO
PAGL 110533Z AUTO 01009KT 3SM -SN BR FEW019 BKN025 OVC036 M06/M08 A2944 RMK AO2 P0000 FZRANO
PAGL 110456Z AUTO 36011G21KT 9SM -SN OVC038 M06/M09 A2946 RMK AO2 SNE23B39 SLP972 P0000 T10611089 FZRANO
PAGL 110256Z AUTO 02015KT 9SM -SN OVC025 M06/M09 A2952 RMK AO2 SNB42 SLP994 P0000 60000 T10561089 56014 FZRANO
PAGL 110156Z AUTO 35007KT 10SM BKN029 OVC035 M07/M09 A2954 RMK AO2 SLP000 T10671089 FZRANO
PAGL 110154Z AUTO 35009KT 10SM BKN029 OVC035 M07/M09 A2954 RMK AO2 FZRANO
PAGL 110056Z AUTO 33009KT 10SM FEW028 BKN035 BKN080 M07/M09 A2956 RMK AO2 SNE05 SLP008 P0000 T10671094 FZRANO
PAGL 102356Z AUTO 34007KT 9SM -SN FEW040 OVC055 M06/M09 A2958 RMK AO2 SNB44 SLP014 P0000 60000 T10611089 11061 21083 58012 FZRANO
PAGL 102156Z AUTO 33009KT 10SM BKN055 M07/M10 A2962 RMK AO2 SLP027 T10721100 FZRANO
PAGL 102056Z AUTO 33008KT 10SM SCT055 M08/M11 A2962 RMK AO2 SLP026 T10831111 58007 FZRANO
PAGL 101956Z AUTO 34008KT 10SM BKN044 M08/M11 A2963 RMK AO2 SLP030 T10781106 FZRANO
PAGL 101856Z AUTO 36007KT 10SM OVC095 M08/M11 A2964 RMK AO2 SLP033 T10831111 FZRANO
PAGL 101756Z AUTO 36006KT 10SM BKN090 M08/M11 A2964 RMK AO2 SLP033 T10781111 11078 21094 56007 FZRANO
PAGL 101456Z AUTO 34014KT 10SM OVC100 M08/M11 A2966 RMK AO2 SLP040 T10831111 58014 FZRANO
PAGL 101356Z AUTO 33011KT 10SM SCT095 SCT120 M09/M12 A2968 RMK AO2 SLP046 T10891117 FZRANO
PAGL 101256Z AUTO 34011KT 10SM SCT095 M09/M11 A2969 RMK AO2 SLP050 T10941111 FZRANO
PAGL 101156Z AUTO 33008KT 10SM BKN100 M09/M11 A2970 RMK AO2 SLP054 60000 T10941111 11094 21150 58014 FZRANO
PAGL 101056Z AUTO 33008KT 10SM SCT110 M10/M12 A2972 RMK AO2 SLP060 T11001117 FZRANO
PAGL 100956Z AUTO 34009KT 10SM BKN110 M10/M12 A2973 RMK AO2 SLP063 T11001117 FZRANO
PAGL 100756Z AUTO 34008KT 9SM -SN OVC110 M10/M11 A2975 RMK AO2 SNB49 SLP070 P0000 T11001111 FZRANO
PAGL 100556Z AUTO 32006KT 10SM CLR M15/M17 A2977 RMK AO2 SLP077 60000 T11501167 11150 21178 58013 FZRANO
PAGL 100356Z AUTO 32006KT 10SM CLR M16/M17 A2980 RMK AO2 SLP088 T11561172 FZRANO